Elliott, Illinois
Current Conditions -  °F | °C
As of 8:10 AM on Friday 31 Oct 2014 (Local Time) from KTIP Reporting Station
Overcast Overcast  
Wind Chill: 30°   Ceiling: 2900
Heat Index: 39°   Visibility: 10mi
Dew Point: 29°   Wind: 20mph
Humidity: 67%   Direction: 330°NNW
Pressure: 30.11"   Gusts: 30mph
Location:  40.46°N, 88.27°W
Report Text: KTIP 311310Z AUTO 33017G26KT 10SM BKN029 BKN038 OVC060 04/M02 A3011 RMK AO2 T00411016
Loading
Personal Weather Stations






























Interactive Weather Map
Tropical Storm Tracking
New forecast layout! Learn more

10-Day Weather Forecast

Advertisements
Track Severe Weather on mobile